createdAt,value
2023-03-02T00:01:50.346Z,72.94
2023-03-02T00:04:21.283Z,71.12
2023-03-02T00:06:49.610Z,70.94
2023-03-02T00:09:16.778Z,70.60
2023-03-02T00:11:46.083Z,70.94
2023-03-02T00:14:13.105Z,70.33
2023-03-02T00:16:40.575Z,70.14
2023-03-02T00:19:07.616Z,70.56
2023-03-02T00:21:35.045Z,70.52
2023-03-02T00:24:01.997Z,70.10
2023-03-02T00:26:28.863Z,70.12
2023-03-02T00:28:56.167Z,69.72
2023-03-02T00:31:23.155Z,69.76
2023-03-02T00:33:51.476Z,70.22
2023-03-02T00:36:18.850Z,69.35
2023-03-02T00:38:45.733Z,69.64
2023-03-02T00:41:13.944Z,69.52
2023-03-02T00:43:41.303Z,69.45
2023-03-02T00:46:11.442Z,69.89
2023-03-02T00:48:38.549Z,70.33
2023-03-02T00:51:06.121Z,71.25
2023-03-02T00:53:33.813Z,70.49
2023-03-02T00:56:05.277Z,70.09
2023-03-02T00:58:32.461Z,70.78
2023-03-02T01:00:59.887Z,71.07
2023-03-02T01:03:26.801Z,70.85
2023-03-02T01:05:55.717Z,70.64
2023-03-02T01:08:23.475Z,70.22
2023-03-02T01:10:50.511Z,70.22
2023-03-02T01:13:18.695Z,69.89
2023-03-02T01:15:46.078Z,70.45
2023-03-02T01:18:13.392Z,69.95
2023-03-02T01:20:40.360Z,70.01
2023-03-02T01:23:07.338Z,71.52
2023-03-02T01:25:34.246Z,72.15
2023-03-02T01:28:01.202Z,71.20
2023-03-02T01:30:28.182Z,71.57
2023-03-02T01:32:55.205Z,71.05
2023-03-02T01:35:22.306Z,72.29
2023-03-02T01:37:49.289Z,72.04
2023-03-02T01:40:17.545Z,71.71
2023-03-02T01:42:47.522Z,72.38
2023-03-02T01:45:17.607Z,73.41
2023-03-02T01:47:44.811Z,73.15
2023-03-02T01:50:12.318Z,72.41
2023-03-02T01:52:39.842Z,72.59
2023-03-02T01:55:08.437Z,72.61
2023-03-02T01:57:44.050Z,72.85
2023-03-02T02:00:13.849Z,72.52
2023-03-02T02:02:42.393Z,70.77
2023-03-02T02:05:12.335Z,70.68
2023-03-02T02:07:39.871Z,72.23
2023-03-02T02:10:07.460Z,74.17
2023-03-02T02:12:34.576Z,71.86
2023-03-02T02:15:02.605Z,71.79
2023-03-02T02:17:30.283Z,72.92
2023-03-02T02:19:57.853Z,74.06
2023-03-02T02:22:31.999Z,72.97
2023-03-02T02:25:03.038Z,72.72
2023-03-02T02:27:34.086Z,72.36
2023-03-02T02:30:03.615Z,72.51
2023-03-02T02:32:32.802Z,73.32
2023-03-02T02:35:02.633Z,73.17
2023-03-02T02:37:33.302Z,74.40
2023-03-02T02:40:02.412Z,74.25
2023-03-02T02:42:31.024Z,73.45
2023-03-02T02:44:58.871Z,73.62
2023-03-02T02:47:25.982Z,72.80
2023-03-02T02:49:54.251Z,72.69
2023-03-02T02:52:22.433Z,73.50
2023-03-02T02:54:50.408Z,73.51
2023-03-02T02:57:18.915Z,73.36
2023-03-02T02:59:48.566Z,73.27
2023-03-02T03:02:19.183Z,73.87
2023-03-02T03:04:45.930Z,72.88
2023-03-02T03:07:15.661Z,73.29
2023-03-02T03:09:42.464Z,73.19
2023-03-02T03:12:15.699Z,73.67
2023-03-02T03:14:42.708Z,73.44
2023-03-02T03:17:14.102Z,73.69
2023-03-02T03:19:42.785Z,73.76
2023-03-02T03:22:12.100Z,74.00
2023-03-02T03:24:39.794Z,74.58
2023-03-02T03:27:07.268Z,75.28
2023-03-02T03:29:34.882Z,75.72
2023-03-02T03:32:02.545Z,75.87
2023-03-02T03:34:30.354Z,75.10
2023-03-02T03:37:02.700Z,75.17
2023-03-02T03:39:30.380Z,76.60
2023-03-02T03:41:57.590Z,77.42
2023-03-02T03:44:24.394Z,76.21
2023-03-02T03:46:51.327Z,75.89
2023-03-02T03:49:18.203Z,76.24
2023-03-02T03:51:45.143Z,75.87
2023-03-02T03:54:11.893Z,75.43
2023-03-02T03:56:40.742Z,75.08
2023-03-02T03:59:08.303Z,75.28
2023-03-02T04:01:38.778Z,75.96
2023-03-02T04:04:06.789Z,75.44
2023-03-02T04:06:34.009Z,75.67
2023-03-02T04:09:05.045Z,77.00
2023-03-02T04:11:33.083Z,76.51
2023-03-02T04:13:59.853Z,76.83
2023-03-02T04:16:26.631Z,76.68
2023-03-02T04:18:53.345Z,76.43
2023-03-02T04:21:20.318Z,76.56
2023-03-02T04:23:47.272Z,77.38
2023-03-02T04:26:14.039Z,77.71
2023-03-02T04:28:40.809Z,77.08
2023-03-02T04:31:07.712Z,78.36
2023-03-02T04:33:34.568Z,77.32
2023-03-02T04:36:01.490Z,77.79
2023-03-02T04:38:29.824Z,78.51
2023-03-02T04:40:57.613Z,77.06
2023-03-02T04:43:25.907Z,77.27
2023-03-02T04:45:53.255Z,78.81
2023-03-02T04:48:20.409Z,78.35
2023-03-02T04:50:47.358Z,77.68
2023-03-02T04:53:14.399Z,77.80
2023-03-02T04:55:41.770Z,78.72
2023-03-02T04:58:08.885Z,78.67
2023-03-02T05:00:35.877Z,79.09
2023-03-02T05:03:04.176Z,78.27
2023-03-02T05:05:30.989Z,78.50
2023-03-02T05:07:58.788Z,78.74
2023-03-02T05:10:26.509Z,78.60
2023-03-02T05:12:55.153Z,78.29
2023-03-02T05:15:23.211Z,78.69
2023-03-02T05:17:49.964Z,78.88
2023-03-02T05:20:17.238Z,79.08
2023-03-02T05:22:44.085Z,79.68
2023-03-02T05:25:11.391Z,79.68
2023-03-02T05:27:38.577Z,79.45
2023-03-02T05:30:06.104Z,79.75
2023-03-02T05:32:33.025Z,80.34
2023-03-02T05:34:59.949Z,79.69
2023-03-02T05:37:26.744Z,79.62
2023-03-02T05:39:53.549Z,79.06
2023-03-02T05:42:20.477Z,79.32
2023-03-02T05:44:47.268Z,79.66
2023-03-02T05:47:14.135Z,79.58
2023-03-02T05:49:41.238Z,79.87
2023-03-02T05:52:07.983Z,79.52
2023-03-02T05:54:36.960Z,80.17
2023-03-02T05:57:03.777Z,80.65
2023-03-02T05:59:30.521Z,81.49
2023-03-02T06:01:59.388Z,80.42
2023-03-02T06:04:26.540Z,79.69
2023-03-02T06:06:53.386Z,80.01
2023-03-02T06:09:20.209Z,79.96
2023-03-02T06:11:47.090Z,80.44
2023-03-02T06:14:13.805Z,80.05
2023-03-02T06:16:40.828Z,80.48
2023-03-02T06:19:07.593Z,80.42
2023-03-02T06:21:34.439Z,79.81
2023-03-02T06:24:02.319Z,81.16
2023-03-02T06:26:29.067Z,80.29
2023-03-02T06:28:55.811Z,79.96
2023-03-02T06:31:22.736Z,79.55
2023-03-02T06:33:50.222Z,80.07
2023-03-02T06:36:17.806Z,80.14
2023-03-02T06:38:44.933Z,81.04
2023-03-02T06:41:11.671Z,80.53
2023-03-02T06:43:38.429Z,79.43
2023-03-02T06:46:05.539Z,78.97
2023-03-02T06:48:32.327Z,79.26
2023-03-02T06:50:59.062Z,79.66
2023-03-02T06:53:25.859Z,79.74
2023-03-02T06:55:52.706Z,79.52
2023-03-02T06:58:20.082Z,78.76
2023-03-02T07:00:46.978Z,79.39
2023-03-02T07:03:13.845Z,78.88
2023-03-02T07:05:40.673Z,78.86
2023-03-02T07:08:07.564Z,80.04
2023-03-02T07:10:34.634Z,78.38
2023-03-02T07:13:01.465Z,78.79
2023-03-02T07:15:28.277Z,78.87
2023-03-02T07:17:55.022Z,78.65
2023-03-02T07:20:21.922Z,78.60
2023-03-02T07:22:48.871Z,78.92
2023-03-02T07:25:15.746Z,78.87
2023-03-02T07:27:42.537Z,77.89
2023-03-02T07:30:10.040Z,78.46
2023-03-02T07:32:36.965Z,78.02
2023-03-02T07:35:04.067Z,77.34
2023-03-02T07:37:30.901Z,77.02
2023-03-02T07:40:00.295Z,76.87
2023-03-02T07:42:27.679Z,76.99
2023-03-02T07:44:54.517Z,77.11
2023-03-02T07:47:21.637Z,78.06
2023-03-02T07:49:48.712Z,76.58
2023-03-02T07:52:15.528Z,76.97
2023-03-02T07:54:42.754Z,76.26
2023-03-02T07:57:09.610Z,76.14
2023-03-02T07:59:36.528Z,76.22
2023-03-02T08:02:06.369Z,75.67
2023-03-02T08:04:34.955Z,77.06
2023-03-02T08:07:01.869Z,77.24
2023-03-02T08:09:28.648Z,78.19
2023-03-02T08:11:55.494Z,77.80
2023-03-02T08:14:23.220Z,77.01
2023-03-02T08:16:52.528Z,75.18
2023-03-02T08:19:20.093Z,75.87
2023-03-02T08:21:46.946Z,77.77
2023-03-02T08:24:16.410Z,76.22
2023-03-02T08:26:43.516Z,74.37
2023-03-02T08:29:10.508Z,74.41
2023-03-02T08:31:37.645Z,73.71
2023-03-02T08:34:10.681Z,74.77
2023-03-02T08:36:38.948Z,74.32
2023-03-02T08:39:05.921Z,73.38
2023-03-02T08:41:34.982Z,74.79
2023-03-02T08:44:05.856Z,74.97
2023-03-02T08:46:32.832Z,74.32
2023-03-02T08:48:59.671Z,74.56
2023-03-02T08:51:26.757Z,73.81
2023-03-02T08:53:55.617Z,73.71
2023-03-02T08:56:25.563Z,74.13
2023-03-02T08:58:53.324Z,74.39
2023-03-02T09:01:22.323Z,73.88
2023-03-02T09:03:49.378Z,72.01
2023-03-02T09:06:16.548Z,72.32
2023-03-02T09:08:43.718Z,73.07
2023-03-02T09:11:10.866Z,73.44
2023-03-02T09:13:37.962Z,72.02
2023-03-02T09:16:05.824Z,71.76
2023-03-02T09:18:32.719Z,71.06
2023-03-02T09:20:59.593Z,71.39
2023-03-02T09:23:27.056Z,71.86
2023-03-02T09:25:54.309Z,71.89
2023-03-02T09:28:22.299Z,71.81
2023-03-02T09:30:52.144Z,70.65
2023-03-02T09:33:19.450Z,69.77
2023-03-02T09:35:47.773Z,69.97
2023-03-02T09:38:17.250Z,69.86
2023-03-02T09:40:52.500Z,70.59
2023-03-02T09:43:22.441Z,68.70
2023-03-02T09:45:49.648Z,69.26
2023-03-02T09:48:17.831Z,69.11
2023-03-02T09:50:47.772Z,68.10
2023-03-02T09:53:17.730Z,69.00
2023-03-02T09:55:46.399Z,68.14
2023-03-02T09:58:16.419Z,68.91
2023-03-02T10:00:44.385Z,69.07
2023-03-02T10:03:18.014Z,68.57
2023-03-02T10:05:46.985Z,67.14
2023-03-02T10:08:17.189Z,67.06
2023-03-02T10:10:47.178Z,66.81
2023-03-02T10:13:14.431Z,66.98
2023-03-02T10:15:47.319Z,67.70
2023-03-02T10:18:19.114Z,66.33
2023-03-02T10:20:49.310Z,66.06
2023-03-02T10:23:23.914Z,66.50
2023-03-02T10:25:53.412Z,67.11
2023-03-02T10:28:22.355Z,67.29
2023-03-02T10:30:55.023Z,64.44
2023-03-02T10:33:22.668Z,64.49
2023-03-02T10:35:50.513Z,63.76
2023-03-02T10:38:20.136Z,63.91
2023-03-02T10:40:47.558Z,64.27
2023-03-02T10:43:16.418Z,65.96
2023-03-02T10:45:43.523Z,66.63
2023-03-02T10:48:12.288Z,64.55
2023-03-02T10:50:39.283Z,64.96
2023-03-02T10:53:09.131Z,65.22
2023-03-02T10:55:38.613Z,64.00
2023-03-02T10:58:07.415Z,64.07
2023-03-02T11:00:35.584Z,64.83
2023-03-02T11:03:04.336Z,63.01
2023-03-02T11:05:31.643Z,62.88
2023-03-02T11:08:01.727Z,62.63
2023-03-02T11:10:32.289Z,63.01
2023-03-02T11:13:00.215Z,64.24
2023-03-02T11:15:28.919Z,62.75
2023-03-02T11:17:58.938Z,62.25
2023-03-02T11:20:28.610Z,62.62
2023-03-02T11:22:55.913Z,63.22
2023-03-02T11:25:26.687Z,62.69
2023-03-02T11:27:57.719Z,63.36
2023-03-02T11:30:27.375Z,63.28
2023-03-02T11:32:58.977Z,63.14
2023-03-02T11:35:28.891Z,63.88
2023-03-02T11:37:57.795Z,62.73
2023-03-02T11:40:30.948Z,63.08
2023-03-02T11:43:00.014Z,62.78
2023-03-02T11:45:30.138Z,63.78
2023-03-02T11:48:03.320Z,62.85
2023-03-02T11:50:32.937Z,62.10
2023-03-02T11:53:02.308Z,60.99
2023-03-02T11:55:35.494Z,60.58
2023-03-02T11:58:04.043Z,61.26
2023-03-02T12:00:34.138Z,61.47
2023-03-02T12:03:03.336Z,61.69
2023-03-02T12:05:31.779Z,60.55
2023-03-02T12:07:59.790Z,60.34
2023-03-02T12:10:31.827Z,60.67
2023-03-02T12:13:02.923Z,60.76
2023-03-02T12:15:37.398Z,61.26
2023-03-02T12:18:15.746Z,59.83
2023-03-02T12:20:43.359Z,60.67
2023-03-02T12:23:22.058Z,60.45
2023-03-02T12:25:51.668Z,60.56
2023-03-02T12:28:21.917Z,60.27
2023-03-02T12:30:56.441Z,61.07
2023-03-02T12:33:23.391Z,61.76
2023-03-02T12:35:51.355Z,61.71
2023-03-02T12:38:24.132Z,62.52
2023-03-02T12:40:52.401Z,62.96
2023-03-02T12:43:22.338Z,61.48
2023-03-02T12:45:52.474Z,61.04
2023-03-02T12:48:26.404Z,61.11
2023-03-02T12:50:57.265Z,60.71
2023-03-02T12:53:24.194Z,61.18
2023-03-02T12:55:51.258Z,61.42
2023-03-02T12:58:20.457Z,61.69
2023-03-02T13:00:50.607Z,61.14
2023-03-02T13:03:17.684Z,61.38
2023-03-02T13:05:46.694Z,59.51
2023-03-02T13:08:16.894Z,59.39
2023-03-02T13:10:47.131Z,59.47
2023-03-02T13:13:14.491Z,59.90
2023-03-02T13:15:44.567Z,59.39
2023-03-02T13:18:14.671Z,59.33
2023-03-02T13:20:41.661Z,59.22
2023-03-02T13:23:11.229Z,58.82
2023-03-02T13:25:39.078Z,59.59
2023-03-02T13:28:08.090Z,58.73
2023-03-02T13:30:37.612Z,58.74
2023-03-02T13:33:17.033Z,57.67
2023-03-02T13:35:46.538Z,57.77
2023-03-02T13:38:18.889Z,58.67
2023-03-02T13:40:48.726Z,58.52
2023-03-02T13:43:18.744Z,56.89
2023-03-02T13:45:48.653Z,56.39
2023-03-02T13:48:15.916Z,57.56
2023-03-02T13:50:51.233Z,57.44
2023-03-02T13:53:18.209Z,55.90
2023-03-02T13:55:45.124Z,55.54
2023-03-02T13:58:16.247Z,55.80
2023-03-02T14:00:43.281Z,56.06
2023-03-02T14:03:21.512Z,56.24
2023-03-02T14:05:48.671Z,56.79
2023-03-02T14:08:15.607Z,57.10
2023-03-02T14:10:42.856Z,57.09
2023-03-02T14:13:13.579Z,56.99
2023-03-02T14:15:42.198Z,57.21
2023-03-02T14:18:24.216Z,57.08
2023-03-02T14:20:51.134Z,56.87
2023-03-02T14:23:24.001Z,56.74
2023-03-02T14:25:52.322Z,56.51
2023-03-02T14:28:35.623Z,57.04
2023-03-02T14:31:04.970Z,57.21
2023-03-02T14:33:32.176Z,58.07
2023-03-02T14:35:59.519Z,56.94
2023-03-02T14:38:27.710Z,56.87
2023-03-02T14:40:54.699Z,57.13
2023-03-02T14:43:23.629Z,56.46
2023-03-02T14:45:50.534Z,56.89
2023-03-02T14:48:17.713Z,57.37
2023-03-02T14:50:46.735Z,55.90
2023-03-02T14:53:17.487Z,55.76
2023-03-02T14:55:45.092Z,55.84
2023-03-02T14:58:14.923Z,56.49
2023-03-02T15:00:42.740Z,57.04
2023-03-02T15:03:13.562Z,56.53
2023-03-02T15:05:46.287Z,56.45
2023-03-02T15:08:15.978Z,57.54
2023-03-02T15:10:43.436Z,58.58
2023-03-02T15:13:10.833Z,59.01
2023-03-02T15:15:46.962Z,57.04
2023-03-02T15:18:16.780Z,56.69
2023-03-02T15:20:43.648Z,55.43
2023-03-02T15:23:10.995Z,55.85
2023-03-02T15:25:38.025Z,55.87
2023-03-02T15:28:05.243Z,55.86
2023-03-02T15:30:33.524Z,56.32
2023-03-02T15:33:00.491Z,55.95
2023-03-02T15:35:28.576Z,56.47
2023-03-02T15:37:58.520Z,56.72
2023-03-02T15:40:28.000Z,56.35
2023-03-02T15:42:55.545Z,56.51
2023-03-02T15:45:22.514Z,57.43
2023-03-02T15:47:49.540Z,55.92
2023-03-02T15:50:16.925Z,55.99
2023-03-02T15:52:43.795Z,56.73
2023-03-02T15:55:10.990Z,56.44
2023-03-02T15:57:39.407Z,57.04
2023-03-02T16:00:06.893Z,56.90
2023-03-02T16:02:34.333Z,56.32
2023-03-02T16:05:04.401Z,56.15
2023-03-02T16:07:42.754Z,56.83
2023-03-02T16:10:15.687Z,56.11
2023-03-02T16:12:42.641Z,55.44
2023-03-02T16:15:09.951Z,55.26
2023-03-02T16:17:37.473Z,54.22
2023-03-02T16:20:04.661Z,54.32
2023-03-02T16:22:31.606Z,55.83
2023-03-02T16:24:58.500Z,54.47
2023-03-02T16:27:25.664Z,54.54
2023-03-02T16:29:52.554Z,54.83
2023-03-02T16:32:19.676Z,55.15
2023-03-02T16:34:46.582Z,56.20
2023-03-02T16:37:13.672Z,56.02
2023-03-02T16:39:47.069Z,56.97
2023-03-02T16:42:13.957Z,57.20
2023-03-02T16:44:41.020Z,57.16
2023-03-02T16:47:08.415Z,57.48
2023-03-02T16:49:36.386Z,57.10
2023-03-02T16:52:03.484Z,56.34
2023-03-02T16:54:30.415Z,57.17
2023-03-02T16:56:57.294Z,56.60
2023-03-02T16:59:24.281Z,56.05
2023-03-02T17:01:51.492Z,56.80
2023-03-02T17:04:22.482Z,56.89
2023-03-02T17:07:00.553Z,57.46
2023-03-02T17:09:28.529Z,57.45
2023-03-02T17:11:55.869Z,56.94
2023-03-02T17:14:32.349Z,56.87
2023-03-02T17:17:00.145Z,56.38
2023-03-02T17:19:29.950Z,56.15
2023-03-02T17:21:58.842Z,57.46
2023-03-02T17:24:34.129Z,56.73
2023-03-02T17:27:02.427Z,57.85
2023-03-02T17:29:30.190Z,57.02
2023-03-02T17:31:57.870Z,56.31
2023-03-02T17:34:28.845Z,57.44
2023-03-02T17:36:56.232Z,57.16
2023-03-02T17:39:23.198Z,57.72
2023-03-02T17:41:50.101Z,58.04
2023-03-02T17:44:17.042Z,58.78
2023-03-02T17:47:04.162Z,58.59
2023-03-02T17:49:32.597Z,58.06
2023-03-02T17:52:00.534Z,59.22
2023-03-02T17:54:38.085Z,58.84
2023-03-02T17:57:05.211Z,58.32
2023-03-02T17:59:32.881Z,58.96
2023-03-02T18:02:18.682Z,58.80
2023-03-02T18:04:46.227Z,59.71
2023-03-02T18:07:13.850Z,59.56
2023-03-02T18:09:41.062Z,59.88
2023-03-02T18:12:08.769Z,60.29
2023-03-02T18:14:37.384Z,59.87
2023-03-02T18:17:26.419Z,60.66
2023-03-02T18:19:56.777Z,59.85
2023-03-02T18:22:24.024Z,60.16
2023-03-02T18:24:52.976Z,59.63
2023-03-02T18:27:20.521Z,60.48
2023-03-02T18:29:47.712Z,60.40
2023-03-02T18:32:15.946Z,60.51
2023-03-02T18:34:42.959Z,60.05
2023-03-02T18:37:09.980Z,61.32
2023-03-02T18:39:38.096Z,62.38
2023-03-02T18:42:05.473Z,63.26
2023-03-02T18:44:32.944Z,61.83
2023-03-02T18:47:01.348Z,61.51
2023-03-02T18:49:28.602Z,62.85
2023-03-02T18:51:56.944Z,61.84
2023-03-02T18:54:30.862Z,61.41
2023-03-02T18:56:58.038Z,62.14
2023-03-02T18:59:25.327Z,62.31
2023-03-02T19:01:52.664Z,62.24
2023-03-02T19:04:19.908Z,62.67
2023-03-02T19:06:46.950Z,62.44
2023-03-02T19:09:13.837Z,63.17
2023-03-02T19:11:40.957Z,63.70
2023-03-02T19:14:17.777Z,63.40
2023-03-02T19:16:44.864Z,63.76
2023-03-02T19:19:11.982Z,63.96
2023-03-02T19:21:39.149Z,64.26
2023-03-02T19:24:06.400Z,64.12
2023-03-02T19:26:33.274Z,64.68
2023-03-02T19:29:00.560Z,65.18
2023-03-02T19:31:27.916Z,64.74
2023-03-02T19:33:54.758Z,64.82
2023-03-02T19:36:21.756Z,64.75
2023-03-02T19:38:48.743Z,65.28
2023-03-02T19:41:17.516Z,66.96
2023-03-02T19:43:46.406Z,66.29
2023-03-02T19:46:14.373Z,66.43
2023-03-02T19:48:42.400Z,66.28
2023-03-02T19:51:09.528Z,66.81
2023-03-02T19:53:37.880Z,67.91
2023-03-02T19:56:08.376Z,68.04
2023-03-02T19:58:36.253Z,67.52
2023-03-02T20:01:04.356Z,67.90
2023-03-02T20:03:31.349Z,68.35
2023-03-02T20:05:59.182Z,67.77
2023-03-02T20:08:26.046Z,68.13
2023-03-02T20:10:53.359Z,68.70
2023-03-02T20:13:20.621Z,68.41
2023-03-02T20:15:49.010Z,68.28
2023-03-02T20:18:21.007Z,68.62
2023-03-02T20:20:51.613Z,68.50
2023-03-02T20:23:20.097Z,69.22
2023-03-02T20:25:48.517Z,69.55
2023-03-02T20:28:16.970Z,68.92
2023-03-02T20:30:48.817Z,69.58
2023-03-02T20:33:17.127Z,69.12
2023-03-02T20:35:45.273Z,70.19
2023-03-02T20:38:17.031Z,69.55
2023-03-02T20:40:44.529Z,69.53
2023-03-02T20:43:11.599Z,69.87
2023-03-02T20:45:38.969Z,70.90
2023-03-02T20:48:06.074Z,70.75
2023-03-02T20:50:35.252Z,70.50
2023-03-02T20:53:02.114Z,70.74
2023-03-02T20:55:29.589Z,71.45
2023-03-02T20:57:56.737Z,72.94
2023-03-02T21:00:26.506Z,71.14
2023-03-02T21:02:53.767Z,71.29
2023-03-02T21:05:21.100Z,71.33
2023-03-02T21:07:47.987Z,70.59
2023-03-02T21:10:16.433Z,71.17
2023-03-02T21:12:43.488Z,71.51
2023-03-02T21:15:10.782Z,72.53
2023-03-02T21:17:37.792Z,72.66
2023-03-02T21:20:05.839Z,72.72
2023-03-02T21:22:33.251Z,72.93
2023-03-02T21:25:00.402Z,73.02
2023-03-02T21:27:27.379Z,72.63
2023-03-02T21:29:54.262Z,73.21
2023-03-02T21:32:21.278Z,72.79
2023-03-02T21:34:48.709Z,72.90
2023-03-02T21:37:15.639Z,73.04
2023-03-02T21:39:42.465Z,73.19
2023-03-02T21:42:09.313Z,72.63
2023-03-02T21:44:36.179Z,72.94
2023-03-02T21:47:03.166Z,73.14
2023-03-02T21:49:30.169Z,73.82
2023-03-02T21:51:57.102Z,74.03
2023-03-02T21:54:24.033Z,73.94
2023-03-02T21:56:50.854Z,74.88
2023-03-02T21:59:17.786Z,74.55
2023-03-02T22:01:44.932Z,73.85
2023-03-02T22:04:11.846Z,73.26
2023-03-02T22:06:38.628Z,73.79
2023-03-02T22:09:05.610Z,73.35
2023-03-02T22:11:35.816Z,73.42
2023-03-02T22:14:10.633Z,73.67
2023-03-02T22:16:38.955Z,73.22
2023-03-02T22:19:18.294Z,73.99
2023-03-02T22:21:47.473Z,74.58
2023-03-02T22:24:18.445Z,74.42
2023-03-02T22:26:46.399Z,74.50
2023-03-02T22:29:14.688Z,75.00
2023-03-02T22:31:46.342Z,74.73
2023-03-02T22:34:14.833Z,74.47
2023-03-02T22:36:41.634Z,75.02
2023-03-02T22:39:12.514Z,75.33
2023-03-02T22:41:39.517Z,75.24
2023-03-02T22:44:09.937Z,75.57
2023-03-02T22:46:36.912Z,75.89
2023-03-02T22:49:11.265Z,75.70
2023-03-02T22:51:38.344Z,75.42
2023-03-02T22:54:13.129Z,76.35
2023-03-02T22:56:43.699Z,75.97
2023-03-02T22:59:12.454Z,76.10
2023-03-02T23:01:41.460Z,77.65
2023-03-02T23:04:11.196Z,76.81
2023-03-02T23:06:46.065Z,76.03
2023-03-02T23:09:15.173Z,75.45
2023-03-02T23:11:43.362Z,75.71
2023-03-02T23:14:17.816Z,75.50
2023-03-02T23:16:47.173Z,74.94
2023-03-02T23:19:15.172Z,76.12
2023-03-02T23:21:46.057Z,76.09
2023-03-02T23:24:15.096Z,74.26
2023-03-02T23:26:43.903Z,74.58
2023-03-02T23:29:11.581Z,73.91
2023-03-02T23:31:38.944Z,74.13
2023-03-02T23:34:06.319Z,74.35
2023-03-02T23:36:33.616Z,74.22
2023-03-02T23:39:00.456Z,74.91
2023-03-02T23:41:27.321Z,74.35
2023-03-02T23:44:00.130Z,75.20
2023-03-02T23:46:27.126Z,74.81
2023-03-02T23:48:56.241Z,74.46
2023-03-02T23:51:23.903Z,74.95
2023-03-02T23:53:51.109Z,74.37
2023-03-02T23:56:18.108Z,74.42
2023-03-02T23:58:44.998Z,74.58
